x

South Hatteras - 225 South Of Cape Hatteras (41002) Wave Buoy

5:50 - Mon 15th Sep 2014 All times are EDT. -4 hours from GMT.

  • Sig Wave height 3.0ft
  • Swell Direction
  • Peak Period 4s
  • Average Period 4s
  • Wind
    18mph, 20mph gusts
  • Sea Temp 83°f
  • Ar Temp 79°f
  • Sea Pressure 1020.9mb
  • South Hatteras - 225 South Of Cape Hatteras
  • South Hatteras - 225 South Of Cape Hatteras

More Historic Weather Station data

Upgrade to MSW Pro to gain access to the past 30 days of data for over 8000 Wavebouys and Weather Stations around the globe.

Join Pro

Comparision Forecast

View Surf forecast
   
Seg 09/15 5:50 3ft 4s 4s 18 20 mph 1020.9mb 83f 79f
4:50 2.5ft 4s 4s 16 18 mph 1020.4mb 83f 78f
3:50 2.5ft 8s 4s 7 13 mph 1020.5mb 83f 76f
2:50 2.5ft 7s 4s 13 16 mph 1020.3mb 83f 81f
1:50 2.5ft 8s 4s 13 18 mph 1021mb 83f 81f
12:50 2.5ft 8s 5s 13 16 mph 1021.2mb 83f 81f
Dom 09/14 11:50 2.5ft 5s 5s 13 16 mph 1021.4mb 83f 80f
10:50 2.5ft 5s 5s 11 13 mph 1021.6mb 83f 80f
9:50 2.5ft 8s 5s 9 11 mph 1021.9mb 83f 80f
8:50 2.5ft 5s 5s 4 7 mph 1021.9mb 83f 80f
7:50 2.5ft 4s 5s 9 11 mph 1021.6mb 83f 79f
6:50 2.5ft 5s 5s 7 9 mph 1021.1mb 83f 79f
5:50 2.5ft 4s 5s 4 7 mph 1020.5mb 83f 79f
4:50 2.5ft 4s 4s 9 11 mph 1020.9mb 83f 78f
3:50 2.5ft 5s 4s 11 13 mph 1021.3mb 83f 78f
2:50 3ft 5s 4s 9 11 mph 1021.8mb 83f 77f
1:50 3ft 5s 4s 16 18 mph 1022.7mb 83f 79f
12:50 2.5ft 4s 4s 16 20 mph 1022.3mb 83f 79f
11:50 2.5ft 4s 4s 18 20 mph 1022.6mb 83f 78f
10:50 2ft 9s 4s 18 22 mph 1022.7mb 83f 78f
9:50 2.5ft 4s 4s 7
mph
1022.3mb 83f 78f
8:50 2.5ft 3s 4s 18 22 mph 1022.1mb 83f 77f
7:50 2ft 4s 4s 16 18 mph 1021.4mb 83f 79f
6:50 2.5ft 4s 4s 11 13 mph 1020.9mb 83f 81f
5:50 2.5ft 4s 4s 9 11 mph 1020.6mb 83f 79f
4:50 2ft 4s 4s 20 25 mph 1020.1mb 83f 80f
3:50 2.5ft 8s 4s 9 13 mph 1020.1mb 83f 79f
2:50 2.5ft 8s 4s 11 13 mph 1020.1mb 83f 81f
1:50 2ft 8s 4s 11 13 mph 1020.5mb 84f 81f
12:50 2ft 4s 4s 11 13 mph 1020.9mb 84f 82f
Sáb 09/13 11:50 2ft 3s 4s 11 13 mph 1021.2mb 84f 82f
9:50 2ft 3s 4s 13
mph
1020.5mb 84f 82f
8:50 2ft 3s 4s 13 16 mph 1020.2mb 84f 82f
7:50 2ft 9s 4s 18 22 mph 1019.2mb 84f 81f
6:50 2ft 9s 4s 13 16 mph 1019.1mb 84f 81f
4:50 2ft 9s 4s 13 16 mph 1019.1mb 84f 83f
3:50 2ft 9s 4s 11 13 mph 1019.1mb 84f 82f
2:50 2ft 8s 4s 11 16 mph 1019.5mb 84f 82f
1:50 2ft 8s 4s 11 13 mph 1020mb 84f 82f
12:50 2ft 9s 4s 9 13 mph 1020.3mb 84f 82f
11:50 1.6ft 6s 4s 11 16 mph 1020.4mb 83f 80f
10:50 2ft 8s 4s 13 16 mph 1020.4mb 83f 80f
9:50 2ft 8s 4s 13 18 mph 1019.9mb 83f 82f
8:50 2ft 8s 4s 9 11 mph 1019.6mb 83f 82f
7:50 2ft 8s 5s 11 13 mph 1019.4mb 83f 81f
6:50 1.6ft 8s 5s 7 9 mph 1018.9mb 83f 81f
5:50 1.6ft 7s 5s 9
mph
1018.6mb 83f 80f
4:50 1.6ft 9s 5s 9
mph
1018.1mb 83f 79f
3:50 2ft 8s 4s 16 20 mph 1018.2mb 84f 76f
2:50 2ft 8s 4s 11 16 mph 1018.6mb 84f 79f
1:50 2ft 8s 4s 9 11 mph 1018.8mb 84f 82f
12:50 2ft 8s 5s 9 11 mph 1018.8mb 84f 82f
Sex 09/12 11:50 2ft 8s 5s 11 13 mph 1018.9mb 84f 82f
10:50 2ft 8s 5s 9
mph
1019.1mb 84f 82f
9:50 2ft 9s 6s 9 11 mph 1018.7mb 84f 82f
8:50 2ft 8s 6s 4 7 mph 1018.4mb 85f 82f
7:50 2ft 8s 6s 4
mph
1017.6mb 85f 82f
6:50 2ft 9s 6s 4 7 mph 1017.2mb 85f 82f
5:50 2.5ft 9s 6s 4 7 mph 1017.2mb 85f 83f
4:50 2.5ft 9s 6s 7 9 mph 1017.2mb 85f 83f
3:50 2.5ft 9s 6s 7 9 mph 1017.6mb 86f 83f
2:50 2.5ft 8s 6s 2 4 mph 1018.2mb 86f 82f
1:50 2.5ft 8s 6s 4 7 mph 1018.7mb 85f 82f
12:50 2.5ft 8s 6s 7 9 mph 1018.8mb 85f 82f
11:50 2.5ft 9s 6s 4 7 mph 1018.9mb 85f 82f
10:50 2.5ft 9s 6s 4
mph
1019.1mb 84f 82f
9:50 2.5ft 6s 6s 4
mph
1018.9mb 84f 82f
8:50 2.5ft 9s 6s 4 7 mph 1018.5mb 83f 82f
7:50 2.5ft 9s 6s 4
mph
1018.3mb 83f 82f
6:50 2.5ft 9s 6s 4 7 mph 1017.9mb 83f 81f
5:50 2.5ft 9s 6s 4 7 mph 1017.5mb 83f 81f
4:50 2.5ft 9s 6s 7 9 mph 1017.3mb 83f 81f
3:50 2.5ft 9s 7s 7 9 mph 1017.2mb 83f 81f
2:50 3ft 9s 7s 7 9 mph 1017.3mb 84f 81f
1:50 2.5ft 8s 6s 7 9 mph 1017.7mb 84f 81f
12:50 2.5ft 9s 6s 2 4 mph 1017.8mb 84f 82f
Qui 09/11 11:50 2.5ft 9s 6s 2 4 mph 1018.1mb 84f 82f
10:50 3ft 7s 6s 4
mph
1018.1mb 84f 82f
9:50 2.5ft 9s 6s 4 7 mph 1017.8mb 84f 82f
8:50 2.5ft 8s 6s 4 7 mph 1017.4mb 84f 82f
7:50 3ft 8s 7s 4
mph
1016.9mb 85f 82f
6:50 2.5ft 8s 7s 4 7 mph 1016.8mb 85f 82f
5:50 3ft 9s 7s 4 7 mph 1016.9mb 85f 82f
4:50 3.5ft 9s 7s 7
mph
1016.8mb 86f 82f
3:50 3ft 9s 7s 2 4 mph 1017.2mb 85f 82f
2:50 3ft 8s 7s 2
mph
1017.5mb 85f 82f
1:50 2.5ft 10s 7s  -  2 mph 1018.2mb 85f 83f
12:50 2.5ft 9s 6s 2
mph
1018.5mb 85f 82f
11:50 2.5ft 8s 6s 2
mph
1018.5mb 84f 82f